sensor_id;sensor_type;location;lat;lon;timestamp;P1;durP1;ratioP1;P2;durP2;ratioP2
23684;SDS011;12020;51.384;6.908;2023-10-31T00:45:24;2.20;;;2.10;;
23684;SDS011;12020;51.384;6.908;2023-10-31T07:32:47;10.80;;;9.80;;
23684;SDS011;12020;51.384;6.908;2023-10-31T07:35:13;12.10;;;10.95;;
23684;SDS011;12020;51.384;6.908;2023-10-31T07:37:40;13.07;;;11.77;;
23684;SDS011;12020;51.384;6.908;2023-10-31T07:42:54;10.38;;;8.82;;
23684;SDS011;12020;51.384;6.908;2023-10-31T07:45:20;12.30;;;11.20;;
23684;SDS011;12020;51.384;6.908;2023-10-31T07:50:31;12.70;;;11.50;;
23684;SDS011;12020;51.384;6.908;2023-10-31T07:52:59;12.65;;;11.38;;
23684;SDS011;12020;51.384;6.908;2023-10-31T07:55:27;12.98;;;11.75;;
23684;SDS011;12020;51.384;6.908;2023-10-31T07:57:54;12.10;;;11.02;;
23684;SDS011;12020;51.384;6.908;2023-10-31T08:02:53;13.45;;;12.20;;
23684;SDS011;12020;51.384;6.908;2023-10-31T08:05:19;13.10;;;11.80;;
23684;SDS011;12020;51.384;6.908;2023-10-31T08:10:49;13.32;;;12.13;;
23684;SDS011;12020;51.384;6.908;2023-10-31T08:13:17;13.50;;;12.30;;
23684;SDS011;12020;51.384;6.908;2023-10-31T08:15:57;13.27;;;12.07;;
23684;SDS011;12020;51.384;6.908;2023-10-31T08:18:27;12.80;;;11.63;;
23684;SDS011;12020;51.384;6.908;2023-10-31T08:20:56;13.23;;;11.93;;
23684;SDS011;12020;51.384;6.908;2023-10-31T08:26:30;12.37;;;11.10;;
23684;SDS011;12020;51.384;6.908;2023-10-31T08:31:55;11.90;;;10.80;;
23684;SDS011;12020;51.384;6.908;2023-10-31T08:37:22;10.95;;;9.85;;
23684;SDS011;12020;51.384;6.908;2023-10-31T08:42:25;9.90;;;9.00;;
23684;SDS011;12020;51.384;6.908;2023-10-31T08:47:41;9.20;;;8.40;;
23684;SDS011;12020;51.384;6.908;2023-10-31T09:18:39;7.80;;;7.00;;
23684;SDS011;12020;51.384;6.908;2023-10-31T09:21:16;7.60;;;6.80;;
23684;SDS011;12020;51.384;6.908;2023-10-31T09:26:18;7.45;;;6.68;;
23684;SDS011;12020;51.384;6.908;2023-10-31T09:52:14;8.37;;;7.57;;
23684;SDS011;12020;51.384;6.908;2023-10-31T10:00:21;8.20;;;7.40;;
23684;SDS011;12020;51.384;6.908;2023-10-31T10:02:54;8.47;;;7.67;;
23684;SDS011;12020;51.384;6.908;2023-10-31T10:23:37;7.68;;;6.90;;
23684;SDS011;12020;51.384;6.908;2023-10-31T10:26:05;7.55;;;6.72;;
23684;SDS011;12020;51.384;6.908;2023-10-31T10:31:01;7.47;;;6.68;;
23684;SDS011;12020;51.384;6.908;2023-10-31T10:44:35;8.00;;;6.18;;
23684;SDS011;12020;51.384;6.908;2023-10-31T10:47:05;6.10;;;5.50;;
23684;SDS011;12020;51.384;6.908;2023-10-31T10:54:51;6.95;;;5.00;;
23684;SDS011;12020;51.384;6.908;2023-10-31T10:57:51;5.93;;;4.80;;
23684;SDS011;12020;51.384;6.908;2023-10-31T11:05:55;4.97;;;4.38;;
23684;SDS011;12020;51.384;6.908;2023-10-31T11:08:47;6.00;;;4.05;;
23684;SDS011;12020;51.384;6.908;2023-10-31T11:11:28;5.32;;;3.80;;
23684;SDS011;12020;51.384;6.908;2023-10-31T11:14:00;4.93;;;3.50;;
23684;SDS011;12020;51.384;6.908;2023-10-31T11:19:01;4.32;;;3.45;;
23684;SDS011;12020;51.384;6.908;2023-10-31T11:24:33;5.72;;;3.60;;
23684;SDS011;12020;51.384;6.908;2023-10-31T11:27:21;4.43;;;3.13;;
23684;SDS011;12020;51.384;6.908;2023-10-31T11:33:04;5.67;;;3.00;;
23684;SDS011;12020;51.384;6.908;2023-10-31T11:38:44;5.97;;;2.70;;
23684;SDS011;12020;51.384;6.908;2023-10-31T11:44:18;6.30;;;2.22;;
23684;SDS011;12020;51.384;6.908;2023-10-31T11:46:51;5.38;;;2.50;;
23684;SDS011;12020;51.384;6.908;2023-10-31T11:54:54;4.30;;;2.35;;
23684;SDS011;12020;51.384;6.908;2023-10-31T12:02:25;5.03;;;2.30;;
23684;SDS011;12020;51.384;6.908;2023-10-31T12:04:51;3.97;;;2.20;;
23684;SDS011;12020;51.384;6.908;2023-10-31T12:17:46;4.47;;;2.20;;
23684;SDS011;12020;51.384;6.908;2023-10-31T12:20:11;3.60;;;2.03;;
23684;SDS011;12020;51.384;6.908;2023-10-31T12:22:38;3.42;;;1.92;;
23684;SDS011;12020;51.384;6.908;2023-10-31T12:25:06;3.65;;;1.80;;
23684;SDS011;12020;51.384;6.908;2023-10-31T12:27:47;3.40;;;1.90;;
23684;SDS011;12020;51.384;6.908;2023-10-31T12:30:20;2.85;;;1.80;;
23684;SDS011;12020;51.384;6.908;2023-10-31T12:32:59;2.27;;;1.70;;
23684;SDS011;12020;51.384;6.908;2023-10-31T12:35:26;3.92;;;1.70;;
23684;SDS011;12020;51.384;6.908;2023-10-31T12:37:55;3.25;;;1.70;;
23684;SDS011;12020;51.384;6.908;2023-10-31T12:40:22;4.32;;;2.13;;
23684;SDS011;12020;51.384;6.908;2023-10-31T12:42:49;3.53;;;1.67;;
23684;SDS011;12020;51.384;6.908;2023-10-31T12:45:18;2.65;;;1.60;;
23684;SDS011;12020;51.384;6.908;2023-10-31T12:47:43;3.10;;;1.40;;
23684;SDS011;12020;51.384;6.908;2023-10-31T12:50:13;4.10;;;1.57;;
23684;SDS011;12020;51.384;6.908;2023-10-31T12:52:49;1.85;;;1.50;;
23684;SDS011;12020;51.384;6.908;2023-10-31T12:55:16;2.40;;;1.75;;
23684;SDS011;12020;51.384;6.908;2023-10-31T12:57:51;3.58;;;1.58;;
23684;SDS011;12020;51.384;6.908;2023-10-31T13:00:32;3.53;;;1.42;;
23684;SDS011;12020;51.384;6.908;2023-10-31T13:03:10;4.35;;;1.70;;
23684;SDS011;12020;51.384;6.908;2023-10-31T13:05:37;3.72;;;1.60;;
23684;SDS011;12020;51.384;6.908;2023-10-31T13:08:09;3.65;;;1.58;;
23684;SDS011;12020;51.384;6.908;2023-10-31T13:10:39;3.45;;;1.70;;
23684;SDS011;12020;51.384;6.908;2023-10-31T13:13:08;1.75;;;1.38;;
23684;SDS011;12020;51.384;6.908;2023-10-31T13:15:37;2.70;;;1.60;;
23684;SDS011;12020;51.384;6.908;2023-10-31T13:18:09;2.90;;;1.63;;
23684;SDS011;12020;51.384;6.908;2023-10-31T13:20:37;3.33;;;1.65;;
23684;SDS011;12020;51.384;6.908;2023-10-31T13:23:05;3.23;;;1.70;;
23684;SDS011;12020;51.384;6.908;2023-10-31T13:25:47;4.43;;;1.90;;
23684;SDS011;12020;51.384;6.908;2023-10-31T13:28:14;4.10;;;1.67;;
23684;SDS011;12020;51.384;6.908;2023-10-31T13:30:48;3.72;;;1.90;;
23684;SDS011;12020;51.384;6.908;2023-10-31T13:33:16;2.83;;;2.00;;
23684;SDS011;12020;51.384;6.908;2023-10-31T13:35:44;3.05;;;2.03;;
23684;SDS011;12020;51.384;6.908;2023-10-31T13:38:11;2.50;;;1.90;;
23684;SDS011;12020;51.384;6.908;2023-10-31T13:40:37;2.88;;;2.20;;
23684;SDS011;12020;51.384;6.908;2023-10-31T13:43:04;3.08;;;2.00;;
23684;SDS011;12020;51.384;6.908;2023-10-31T13:45:35;2.97;;;2.30;;
23684;SDS011;12020;51.384;6.908;2023-10-31T13:48:03;3.50;;;1.90;;
23684;SDS011;12020;51.384;6.908;2023-10-31T13:50:34;2.92;;;1.90;;
23684;SDS011;12020;51.384;6.908;2023-10-31T13:53:04;4.55;;;2.10;;
23684;SDS011;12020;51.384;6.908;2023-10-31T13:55:34;2.83;;;2.00;;
23684;SDS011;12020;51.384;6.908;2023-10-31T13:58:05;2.92;;;2.08;;
23684;SDS011;12020;51.384;6.908;2023-10-31T14:00:33;3.83;;;2.45;;
23684;SDS011;12020;51.384;6.908;2023-10-31T14:03:02;3.05;;;2.38;;
23684;SDS011;12020;51.384;6.908;2023-10-31T14:08:09;4.00;;;2.22;;
23684;SDS011;12020;51.384;6.908;2023-10-31T14:10:51;3.58;;;2.30;;
23684;SDS011;12020;51.384;6.908;2023-10-31T14:18:27;4.07;;;2.10;;
23684;SDS011;12020;51.384;6.908;2023-10-31T14:36:23;4.43;;;1.83;;
23684;SDS011;12020;51.384;6.908;2023-10-31T14:38:49;3.10;;;2.05;;
23684;SDS011;12020;51.384;6.908;2023-10-31T14:41:25;4.55;;;2.22;;
23684;SDS011;12020;51.384;6.908;2023-10-31T14:44:06;4.40;;;2.20;;
23684;SDS011;12020;51.384;6.908;2023-10-31T14:46:33;3.72;;;2.05;;
23684;SDS011;12020;51.384;6.908;2023-10-31T14:48:59;3.50;;;1.70;;
23684;SDS011;12020;51.384;6.908;2023-10-31T14:51:27;4.43;;;1.55;;
23684;SDS011;12020;51.384;6.908;2023-10-31T14:53:53;2.03;;;1.45;;
23684;SDS011;12020;51.384;6.908;2023-10-31T14:56:27;3.35;;;1.40;;
23684;SDS011;12020;51.384;6.908;2023-10-31T14:58:54;3.00;;;1.42;;
23684;SDS011;12020;51.384;6.908;2023-10-31T15:01:21;2.67;;;1.63;;
23684;SDS011;12020;51.384;6.908;2023-10-31T15:03:46;2.20;;;1.20;;
23684;SDS011;12020;51.384;6.908;2023-10-31T15:06:13;4.35;;;1.63;;
23684;SDS011;12020;51.384;6.908;2023-10-31T15:08:41;3.05;;;1.40;;
23684;SDS011;12020;51.384;6.908;2023-10-31T15:11:14;2.60;;;1.67;;
23684;SDS011;12020;51.384;6.908;2023-10-31T15:13:43;4.20;;;1.60;;
23684;SDS011;12020;51.384;6.908;2023-10-31T15:16:08;3.40;;;1.60;;
23684;SDS011;12020;51.384;6.908;2023-10-31T15:18:35;4.53;;;1.47;;
23684;SDS011;12020;51.384;6.908;2023-10-31T15:21:01;3.13;;;1.50;;
23684;SDS011;12020;51.384;6.908;2023-10-31T15:23:28;2.80;;;1.40;;
23684;SDS011;12020;51.384;6.908;2023-10-31T15:25:55;3.05;;;1.50;;
23684;SDS011;12020;51.384;6.908;2023-10-31T15:28:24;4.72;;;1.63;;
23684;SDS011;12020;51.384;6.908;2023-10-31T15:30:54;3.70;;;1.90;;
23684;SDS011;12020;51.384;6.908;2023-10-31T15:33:21;4.30;;;1.92;;
23684;SDS011;12020;51.384;6.908;2023-10-31T15:35:47;3.80;;;1.50;;
23684;SDS011;12020;51.384;6.908;2023-10-31T15:38:13;3.33;;;1.60;;
23684;SDS011;12020;51.384;6.908;2023-10-31T15:40:40;2.85;;;1.40;;
23684;SDS011;12020;51.384;6.908;2023-10-31T15:45:55;4.13;;;1.33;;
23684;SDS011;12020;51.384;6.908;2023-10-31T15:50:55;2.90;;;1.58;;
23684;SDS011;12020;51.384;6.908;2023-10-31T15:53:26;4.43;;;1.60;;
23684;SDS011;12020;51.384;6.908;2023-10-31T15:55:55;5.10;;;1.70;;
23684;SDS011;12020;51.384;6.908;2023-10-31T15:58:22;4.72;;;1.73;;
23684;SDS011;12020;51.384;6.908;2023-10-31T16:00:54;4.43;;;1.88;;
23684;SDS011;12020;51.384;6.908;2023-10-31T16:03:20;4.43;;;1.60;;
23684;SDS011;12020;51.384;6.908;2023-10-31T16:05:47;4.35;;;1.63;;
23684;SDS011;12020;51.384;6.908;2023-10-31T16:08:13;3.33;;;1.70;;
23684;SDS011;12020;51.384;6.908;2023-10-31T16:10:39;3.88;;;1.70;;
23684;SDS011;12020;51.384;6.908;2023-10-31T16:13:20;3.60;;;1.70;;
23684;SDS011;12020;51.384;6.908;2023-10-31T16:15:50;4.30;;;1.70;;
23684;SDS011;12020;51.384;6.908;2023-10-31T16:18:30;5.82;;;1.75;;
23684;SDS011;12020;51.384;6.908;2023-10-31T16:20:57;4.73;;;1.70;;
23684;SDS011;12020;51.384;6.908;2023-10-31T17:45:48;2.70;;;2.35;;
23684;SDS011;12020;51.384;6.908;2023-10-31T17:48:20;4.15;;;2.40;;
23684;SDS011;12020;51.384;6.908;2023-10-31T17:50:49;3.70;;;2.63;;
23684;SDS011;12020;51.384;6.908;2023-10-31T17:53:15;3.20;;;2.30;;
23684;SDS011;12020;51.384;6.908;2023-10-31T18:11:13;4.13;;;2.80;;
23684;SDS011;12020;51.384;6.908;2023-10-31T18:16:28;3.85;;;3.00;;
23684;SDS011;12020;51.384;6.908;2023-10-31T18:19:01;4.97;;;3.35;;
23684;SDS011;12020;51.384;6.908;2023-10-31T18:21:51;4.00;;;3.38;;
23684;SDS011;12020;51.384;6.908;2023-10-31T18:26:57;5.88;;;3.40;;
